Time;durP1;ratioP1;P1;durP2;ratioP2;P2;SDS_P1;SDS_P2;PMS_P1;PMS_P2;Temp;Humidity;BMP_temperature;BMP_pressure;BME280_temperature;BME280_humidity;BME280_pressure;Samples;Min_cycle;Max_cycle;Signal;HPM_P1;HPM_P2
2022/01/12 00:01:14;;;;;;;5.72;3.03;;;;;;;19.65;31.47;103458.75;7315477;19;128990;-62
2022/01/12 00:03:43;;;;;;;4.15;2.80;;;;;;;19.64;31.24;103470.91;7320224;19;130154;-61
2022/01/12 00:06:11;;;;;;;5.47;3.17;;;;;;;19.63;31.50;103474.75;7314758;19;131647;-62
2022/01/12 00:08:38;;;;;;;5.68;3.22;;;;;;;19.62;31.47;103474.94;7318442;19;131895;-61
2022/01/12 00:11:05;;;;;;;5.35;3.25;;;;;;;19.62;31.50;103475.78;7315101;19;132702;-61
2022/01/12 00:13:34;;;;;;;4.78;3.13;;;;;;;19.61;31.28;103476.84;7316160;19;129599;-62
2022/01/12 00:16:03;;;;;;;5.50;2.90;;;;;;;19.57;31.50;103489.38;7315523;19;131918;-61
2022/01/12 00:18:31;;;;;;;7.32;3.40;;;;;;;19.56;31.42;103489.56;7314088;19;131102;-61
2022/01/12 00:20:58;;;;;;;5.05;3.40;;;;;;;19.54;31.52;103495.34;7316754;19;131419;-61
2022/01/12 00:23:25;;;;;;;4.55;3.20;;;;;;;19.53;31.51;103490.81;7314046;19;129035;-61
2022/01/12 00:26:08;;;;;;;4.57;3.20;;;;;;;19.51;31.72;103498.47;7316586;19;131159;-62
2022/01/12 00:34:10;;;;;;;6.13;3.30;;;;;;;19.45;31.53;103505.66;7316936;19;128898;-62
2022/01/12 00:36:38;;;;;;;4.32;2.90;;;;;;;19.44;31.40;103500.31;7313579;19;131954;-62
2022/01/12 00:39:06;;;;;;;5.75;3.47;;;;;;;19.43;31.84;103509.69;7318116;19;131267;-61
2022/01/12 00:41:36;;;;;;;6.68;3.22;;;;;;;19.41;31.69;103522.88;7312096;19;129045;-62
2022/01/12 00:44:06;;;;;;;4.35;2.78;;;;;;;19.40;31.71;103532.25;7317387;19;129518;-62
2022/01/12 00:46:34;;;;;;;5.05;3.58;;;;;;;19.38;31.75;103530.53;7313974;19;131463;-61
2022/01/12 00:49:01;;;;;;;4.85;3.75;;;;;;;19.37;31.52;103528.81;7314287;19;131888;-61
2022/01/12 00:51:33;;;;;;;5.38;3.15;;;;;;;19.37;31.38;103527.94;7314133;19;129098;-61
2022/01/12 00:54:01;;;;;;;4.57;2.88;;;;;;;19.36;31.80;103531.78;7313844;19;129627;-61
2022/01/12 00:56:29;;;;;;;5.03;3.30;;;;;;;19.33;31.42;103538.53;7316873;19;131136;-61
2022/01/12 00:58:55;;;;;;;6.38;3.38;;;;;;;19.32;31.66;103547.06;7312393;19;131011;-61
2022/01/12 01:01:22;;;;;;;4.20;3.03;;;;;;;19.30;31.68;103547.28;7317481;19;130789;-61
2022/01/12 01:03:50;;;;;;;5.10;3.45;;;;;;;19.29;31.58;103540.00;7311244;19;132415;-61
2022/01/12 01:06:18;;;;;;;5.10;3.42;;;;;;;19.27;31.93;103542.09;7314540;19;132347;-61
2022/01/12 01:08:48;;;;;;;4.80;3.33;;;;;;;19.27;31.76;103538.44;7312392;19;130740;-61
2022/01/12 01:11:15;;;;;;;5.40;3.70;;;;;;;19.26;31.90;103540.34;7312857;19;129768;-62
2022/01/12 01:13:48;;;;;;;5.18;3.20;;;;;;;19.24;31.86;103542.44;7312699;19;129253;-61
2022/01/12 01:27:17;;;;;;;4.57;3.30;;;;;;;19.19;31.59;103556.00;7311791;19;132159;-61
2022/01/12 01:29:44;;;;;;;8.82;3.25;;;;;;;19.17;31.67;103552.56;7311092;19;131885;-61
2022/01/12 01:32:12;;;;;;;7.90;2.95;;;;;;;19.15;32.01;103535.22;7315851;19;128819;-61
2022/01/12 01:34:45;;;;;;;4.38;2.88;;;;;;;19.15;31.98;103524.13;7310974;19;133732;-62
2022/01/12 01:37:11;;;;;;;5.28;2.95;;;;;;;19.14;31.90;103511.28;7313901;19;131941;-61
2022/01/12 01:39:39;;;;;;;5.63;3.45;;;;;;;19.13;31.91;103515.13;7311450;19;132224;-62
2022/01/12 01:42:17;;;;;;;5.97;3.10;;;;;;;19.12;32.12;103524.47;7314074;19;131318;-61
2022/01/12 01:55:30;;;;;;;5.30;3.17;;;;;;;19.06;32.12;103559.38;7313652;19;128872;-62
2022/01/12 01:57:58;;;;;;;6.13;3.45;;;;;;;19.04;32.01;103544.84;7311545;19;131132;-61
2022/01/12 02:00:27;;;;;;;7.65;2.90;;;;;;;19.03;31.73;103546.75;7311910;19;131694;-62
2022/01/12 02:02:57;;;;;;;5.90;3.70;;;;;;;19.02;32.11;103535.81;7315641;19;129433;-61
2022/01/12 02:05:24;;;;;;;5.55;3.45;;;;;;;19.01;32.16;103537.75;7310133;19;129257;-61
2022/01/12 02:07:51;;;;;;;6.15;3.42;;;;;;;19.01;31.76;103539.69;7314217;19;132732;-61
2022/01/12 02:10:18;;;;;;;4.43;2.80;;;;;;;19.01;32.21;103528.56;7310403;19;132373;-62
2022/01/12 02:12:44;;;;;;;3.90;2.83;;;;;;;19.00;31.74;103524.06;7314498;19;131409;-61
2022/01/12 02:15:18;;;;;;;5.70;3.35;;;;;;;18.99;32.11;103514.88;7311958;19;128949;-61
2022/01/12 02:18:35;;;;;;;5.80;3.25;;;;;;;18.98;31.95;103524.25;7311786;19;132257;-61
2022/01/12 02:40:35;;;;;;;5.13;3.30;;;;;;;18.87;31.90;103555.19;7310026;19;131161;-62
2022/01/12 02:43:27;;;;;;;6.30;3.50;;;;;;;18.86;32.24;103559.00;7313382;19;131019;-61
2022/01/12 02:53:39;;;;;;;5.20;3.35;;;;;;;18.83;31.89;103565.78;7310372;19;131969;-61
2022/01/12 02:56:08;;;;;;;4.70;3.03;;;;;;;18.83;31.88;103567.72;7311566;19;130352;-61
2022/01/12 02:58:36;;;;;;;4.30;3.35;;;;;;;18.83;31.91;103576.03;7307757;19;128921;-62
2022/01/12 03:01:28;;;;;;;7.93;3.38;;;;;;;18.81;32.09;103584.53;7312900;19;131963;-62
2022/01/12 03:03:53;;;;;;;6.97;3.38;;;;;;;18.80;32.10;103582.78;7307949;19;131121;-61
2022/01/12 03:06:28;;;;;;;5.88;3.65;;;;;;;18.81;32.07;103589.22;7310080;19;130339;-61
2022/01/12 03:08:56;;;;;;;5.22;3.20;;;;;;;18.80;32.18;103595.81;7310771;19;131462;-61
2022/01/12 03:11:24;;;;;;;5.82;3.33;;;;;;;18.80;32.03;103599.44;7309278;19;131858;-61
2022/01/12 03:13:52;;;;;;;4.25;2.65;;;;;;;18.78;31.90;103593.19;7313376;19;131153;-61
2022/01/12 03:16:23;;;;;;;6.72;3.42;;;;;;;18.77;32.35;103586.81;7309512;19;131024;-62
2022/01/12 03:18:56;;;;;;;3.92;3.20;;;;;;;18.77;32.39;103603.44;7312819;19;129896;-61
2022/01/12 03:21:27;;;;;;;6.57;3.22;;;;;;;18.76;32.36;103607.25;7309965;19;131270;-61
2022/01/12 03:23:54;;;;;;;7.28;3.47;;;;;;;18.75;31.93;103607.44;7312587;19;132436;-61
2022/01/12 03:26:22;;;;;;;5.05;2.83;;;;;;;18.75;32.05;103610.22;7308778;19;132075;-61
2022/01/12 03:28:53;;;;;;;6.22;3.20;;;;;;;18.74;31.95;103608.50;7308344;19;130677;-61
2022/01/12 03:31:24;;;;;;;4.95;3.30;;;;;;;18.73;32.38;103604.84;7311924;19;131039;-61
2022/01/12 03:33:58;;;;;;;7.35;3.30;;;;;;;18.72;32.07;103608.66;7312949;19;131295;-61
2022/01/12 03:39:07;;;;;;;4.68;2.95;;;;;;;18.70;32.23;103602.47;7316138;19;128796;-61
2022/01/12 03:41:36;;;;;;;5.25;3.50;;;;;;;18.69;32.30;103611.81;7318572;19;131306;-61
2022/01/12 03:44:08;;;;;;;5.60;3.10;;;;;;;18.69;32.14;103609.03;7316370;19;131002;-61
2022/01/12 03:46:45;;;;;;;5.50;3.30;;;;;;;18.69;32.19;103608.16;7317043;19;128830;-61
2022/01/12 03:49:12;;;;;;;6.07;3.20;;;;;;;18.68;32.22;103606.44;7319272;19;129149;-61
2022/01/12 03:51:39;;;;;;;9.30;3.92;;;;;;;18.66;32.45;103603.84;7315291;19;132033;-61
2022/01/12 03:54:06;;;;;;;4.25;2.72;;;;;;;18.65;32.06;103602.13;7319232;19;131774;-61
2022/01/12 03:56:33;;;;;;;4.93;3.75;;;;;;;18.66;32.17;103600.19;7313023;19;129183;-62
2022/01/12 03:59:00;;;;;;;7.03;3.28;;;;;;;18.64;32.38;103597.63;7317497;19;128932;-62
2022/01/12 04:01:26;;;;;;;5.25;2.90;;;;;;;18.63;32.01;103590.34;7315052;19;131199;-61
2022/01/12 04:04:05;;;;;;;7.60;3.38;;;;;;;18.62;32.03;103594.16;7317637;19;131933;-62
2022/01/12 04:09:38;;;;;;;3.97;3.20;;;;;;;18.61;32.15;103606.28;7314300;19;130721;-61
2022/01/12 04:12:05;;;;;;;3.15;2.60;;;;;;;18.60;32.12;103615.66;7319188;19;131860;-61
2022/01/12 04:14:32;;;;;;;4.55;3.17;;;;;;;18.59;32.17;103619.47;7314677;19;134096;-61
2022/01/12 04:16:59;;;;;;;4.63;3.67;;;;;;;18.61;32.30;103628.47;7318455;19;129232;-61
2022/01/12 04:19:27;;;;;;;6.10;3.50;;;;;;;18.59;32.08;103630.56;7314881;19;130029;-61
2022/01/12 04:21:54;;;;;;;4.72;3.30;;;;;;;18.59;32.02;103641.66;7316729;19;131715;-61
2022/01/12 04:24:21;;;;;;;5.50;3.20;;;;;;;18.58;32.38;103637.19;7313381;19;131069;-61
2022/01/12 04:26:47;;;;;;;5.60;3.13;;;;;;;18.57;32.18;103643.75;7314025;19;128973;-61
2022/01/12 04:29:14;;;;;;;3.78;3.00;;;;;;;18.56;32.32;103636.47;7316650;19;128959;-62
2022/01/12 04:31:41;;;;;;;4.22;3.15;;;;;;;18.55;32.11;103640.28;7313931;19;131138;-62
2022/01/12 04:34:09;;;;;;;6.85;3.22;;;;;;;18.55;32.22;103634.75;7318349;19;131226;-61
2022/01/12 04:36:36;;;;;;;9.52;3.30;;;;;;;18.54;32.36;103635.78;7311150;19;128938;-62
2022/01/12 04:39:04;;;;;;;4.88;3.47;;;;;;;18.53;32.15;103637.69;7316938;19;129264;-62
2022/01/12 04:41:30;;;;;;;4.57;3.58;;;;;;;18.52;32.44;103626.78;7313904;19;131137;-62
2022/01/12 04:43:58;;;;;;;5.28;3.35;;;;;;;18.52;32.42;103632.34;7315646;19;131197;-62
2022/01/12 04:46:34;;;;;;;4.47;3.13;;;;;;;18.50;32.48;103624.22;7312559;19;129274;-62
2022/01/12 04:49:20;;;;;;;4.05;2.83;;;;;;;18.50;32.08;103624.22;7314556;19;129080;-61
2022/01/12 04:51:47;;;;;;;6.13;3.30;;;;;;;18.50;32.46;103626.09;7316807;19;131148;-62
2022/01/12 04:54:14;;;;;;;6.53;3.20;;;;;;;18.48;32.12;103617.09;7312225;19;131035;-62
2022/01/12 04:56:40;;;;;;;5.60;3.28;;;;;;;18.48;32.14;103617.09;7316665;19;128841;-62
2022/01/12 04:59:07;;;;;;;5.63;3.45;;;;;;;18.46;32.22;103612.59;7310798;19;129049;-61
2022/01/12 05:01:47;;;;;;;4.75;3.03;;;;;;;18.46;32.50;103604.28;7310477;19;131088;-62
2022/01/12 05:07:25;;;;;;;6.13;3.80;;;;;;;18.46;32.50;103622.81;7311398;19;133537;-62
2022/01/12 05:12:52;;;;;;;4.38;3.33;;;;;;;18.45;32.37;103618.31;7308384;19;132546;-61
2022/01/12 05:15:27;;;;;;;4.47;2.95;;;;;;;18.45;32.48;103627.53;7314709;19;131531;-61
2022/01/12 05:17:54;;;;;;;6.38;3.10;;;;;;;18.45;32.33;103619.22;7315077;19;128947;-61
2022/01/12 05:20:22;;;;;;;4.15;3.05;;;;;;;18.45;32.56;103607.25;7313314;19;129234;-62
2022/01/12 05:22:49;;;;;;;6.30;3.63;;;;;;;18.44;32.26;103614.69;7315273;19;131217;-62
2022/01/12 05:25:18;;;;;;;4.95;3.67;;;;;;;18.44;32.26;103617.47;7311112;19;132266;-62
2022/01/12 05:27:46;;;;;;;3.70;3.00;;;;;;;18.43;32.43;103607.44;7312977;19;128778;-61
2022/01/12 05:30:13;;;;;;;5.28;3.15;;;;;;;18.43;32.18;103621.28;7310821;19;129051;-62
2022/01/12 05:32:42;;;;;;;4.20;3.15;;;;;;;18.45;32.49;103630.28;7315238;19;131426;-62
2022/01/12 05:35:11;;;;;;;5.00;3.40;;;;;;;18.43;32.13;103626.84;7311303;19;132021;-61
2022/01/12 05:37:39;;;;;;;4.07;3.00;;;;;;;18.44;32.26;103627.69;7311916;19;129167;-62
2022/01/12 05:40:07;;;;;;;4.88;3.28;;;;;;;18.43;32.40;103621.28;7314830;19;131926;-62
2022/01/12 05:42:34;;;;;;;4.78;3.20;;;;;;;18.43;32.11;103620.41;7308153;19;131237;-62
2022/01/12 05:45:03;;;;;;;6.63;2.97;;;;;;;18.42;32.09;103625.09;7315813;19;131186;-61
2022/01/12 05:49:34;;;;;;;4.32;3.08;;;;;;;18.41;32.22;103623.38;7308953;19;129036;-61
2022/01/12 05:50:18;;;;;;;5.53;3.45;;;;;;;18.41;32.41;103623.38;7312284;19;128915;-62
2022/01/12 05:52:46;;;;;;;5.32;3.30;;;;;;;18.41;32.45;103630.81;7310270;19;131397;-61
2022/01/12 05:55:13;;;;;;;5.60;3.60;;;;;;;18.41;32.20;103640.00;7311715;19;131035;-62
2022/01/12 05:57:41;;;;;;;5.95;3.20;;;;;;;18.39;32.28;103653.16;7313610;19;131243;-62
2022/01/12 06:00:11;;;;;;;3.38;3.08;;;;;;;18.40;32.16;103646.59;7308827;19;129792;-61
2022/01/12 06:02:38;;;;;;;4.22;3.03;;;;;;;18.39;32.42;103636.53;7314293;19;130990;-62
2022/01/12 06:05:06;;;;;;;4.70;3.13;;;;;;;18.38;32.52;103639.47;7308813;19;131111;-62
2022/01/12 06:07:32;;;;;;;4.32;3.30;;;;;;;18.38;32.39;103648.63;7311087;19;128984;-61
2022/01/12 06:09:59;;;;;;;5.28;3.42;;;;;;;18.38;32.23;103639.47;7307540;19;129000;-61
2022/01/12 06:12:26;;;;;;;5.43;3.47;;;;;;;18.37;32.16;103646.91;7308518;19;131009;-62
2022/01/12 06:14:52;;;;;;;4.40;3.20;;;;;;;18.36;32.48;103647.94;7309323;19;131020;-62
2022/01/12 06:17:19;;;;;;;3.60;2.88;;;;;;;18.37;32.33;103652.44;7308860;19;129042;-62
2022/01/12 06:19:46;;;;;;;5.35;3.33;;;;;;;18.35;32.24;103651.75;7311568;19;128930;-62
2022/01/12 06:22:13;;;;;;;4.00;3.15;;;;;;;18.37;32.24;103659.91;7308239;19;131527;-62
2022/01/12 06:24:43;;;;;;;4.53;2.88;;;;;;;18.35;32.47;103662.84;7310823;19;132838;-61
2022/01/12 06:27:14;;;;;;;4.75;2.85;;;;;;;18.34;32.19;103672.19;7308644;19;129009;-62
2022/01/12 06:29:48;;;;;;;4.55;2.88;;;;;;;18.37;32.40;103671.84;7313339;19;130841;-61
2022/01/12 06:32:16;;;;;;;5.38;2.60;;;;;;;18.44;32.41;103666.50;7308283;19;131228;-62
2022/01/12 06:34:43;;;;;;;3.38;2.70;;;;;;;18.56;32.22;103673.38;7310770;19;131887;-62
2022/01/12 06:37:11;;;;;;;5.05;3.17;;;;;;;18.74;32.02;103678.69;7311380;19;128961;-61
2022/01/12 06:39:37;;;;;;;4.95;3.38;;;;;;;18.95;31.86;103685.53;7308415;19;129312;-62
2022/01/12 06:42:05;;;;;;;7.47;3.70;;;;;;;19.16;31.29;103687.66;7312856;19;131851;-61
2022/01/12 06:44:32;;;;;;;4.97;3.75;;;;;;;19.43;31.33;103687.34;7307120;19;131094;-62
2022/01/12 06:47:02;;;;;;;4.20;3.22;;;;;;;19.71;30.59;103698.75;7309364;19;128967;-62
2022/01/12 06:49:30;;;;;;;4.03;3.10;;;;;;;19.96;30.88;103702.19;7307594;19;128997;-61
2022/01/12 06:51:59;;;;;;;5.50;3.10;;;;;;;20.22;30.55;103702.84;7307421;19;131773;-61
2022/01/12 06:54:27;;;;;;;4.72;2.80;;;;;;;20.44;30.02;103704.69;7307222;19;130926;-62
2022/01/12 06:56:54;;;;;;;3.47;2.63;;;;;;;20.65;30.00;103707.75;7307724;19;132373;-63
2022/01/12 06:59:21;;;;;;;4.40;3.13;;;;;;;20.82;29.64;103708.44;7311879;19;128760;-62
2022/01/12 07:01:47;;;;;;;9.18;3.13;;;;;;;20.93;29.52;103719.09;7309382;19;131197;-62
2022/01/12 07:04:14;;;;;;;7.13;3.28;;;;;;;21.02;29.72;103715.13;7312394;19;131998;-59
2022/01/12 07:06:41;;;;;;;9.85;3.25;;;;;;;21.09;29.80;103709.63;7309633;19;130522;-60
2022/01/12 07:09:07;;;;;;;16.55;3.30;;;;;;;21.15;29.90;103719.13;7313928;19;129038;-62
2022/01/12 07:11:34;;;;;;;15.57;3.45;;;;;;;21.16;30.15;103718.94;7319629;19;131291;-62
2022/01/12 07:14:01;;;;;;;13.32;3.63;;;;;;;21.16;30.15;103720.84;7315695;19;131148;-62
2022/01/12 07:16:28;;;;;;;15.70;3.38;;;;;;;21.11;29.92;103715.03;7317896;19;128834;-62
2022/01/12 07:18:59;;;;;;;12.52;3.92;;;;;;;21.03;29.74;103721.56;7301203;19;129987;-62
2022/01/12 07:21:26;;;;;;;13.30;3.58;;;;;;;20.96;29.72;103717.81;7317454;19;132070;-61
2022/01/12 07:23:56;;;;;;;18.73;3.90;;;;;;;20.86;29.93;103716.22;7314033;19;131872;-61
2022/01/12 07:26:24;;;;;;;11.52;3.88;;;;;;;20.79;29.98;103726.41;7319139;19;129090;-61
2022/01/12 07:28:51;;;;;;;14.20;3.88;;;;;;;20.71;30.12;103729.22;7315496;19;128964;-61
2022/01/12 07:31:18;;;;;;;13.90;3.70;;;;;;;20.62;29.98;103719.25;7317374;19;130942;-62
2022/01/12 07:33:44;;;;;;;12.63;3.47;;;;;;;20.53;30.43;103719.38;7318663;19;131044;-61
2022/01/12 07:36:12;;;;;;;10.88;3.83;;;;;;;20.47;30.28;103722.91;7315405;19;129088;-61
2022/01/12 07:38:39;;;;;;;13.80;3.70;;;;;;;20.39;30.41;103723.00;7318850;19;129080;-61
2022/01/12 07:41:06;;;;;;;8.88;3.80;;;;;;;20.33;30.73;103732.09;7315176;19;131233;-61
2022/01/12 07:43:32;;;;;;;14.70;4.20;;;;;;;20.25;30.36;103736.69;7319444;19;132234;-62
2022/01/12 07:45:59;;;;;;;14.38;4.50;;;;;;;20.17;30.85;103738.66;7314431;19;130226;-62
2022/01/12 07:48:26;;;;;;;8.43;3.33;;;;;;;20.16;30.45;103742.50;7317819;19;128852;-61
2022/01/12 07:50:53;;;;;;;10.40;3.58;;;;;;;20.18;30.75;103744.06;7316477;19;131497;-61
2022/01/12 07:53:19;;;;;;;8.43;3.60;;;;;;;20.23;30.74;103744.34;7317506;19;131079;-61
2022/01/12 07:55:46;;;;;;;9.07;3.53;;;;;;;20.34;30.57;103759.72;7314386;19;132215;-61
2022/01/12 07:58:13;;;;;;;9.30;3.50;;;;;;;20.45;30.50;103769.50;7315604;19;129110;-61
2022/01/12 08:00:40;;;;;;;13.23;3.15;;;;;;;20.58;30.56;103769.69;7317862;19;130991;-61
2022/01/12 08:03:07;;;;;;;8.45;4.00;;;;;;;20.70;30.29;103783.13;7315810;19;131092;-61
2022/01/12 08:05:34;;;;;;;9.00;4.00;;;;;;;20.79;29.89;103786.72;7320612;19;128938;-61
2022/01/12 08:08:01;;;;;;;8.48;3.72;;;;;;;20.88;29.70;103797.59;7312917;19;129131;-62
2022/01/12 08:10:27;;;;;;;12.77;4.28;;;;;;;20.98;29.87;103801.97;7316779;19;131115;-61
2022/01/12 08:12:54;;;;;;;6.70;3.42;;;;;;;21.07;29.83;103795.25;7314012;19;131207;-61
2022/01/12 08:15:21;;;;;;;8.18;3.95;;;;;;;21.16;29.63;103810.81;7316225;19;128885;-62
2022/01/12 08:17:48;;;;;;;6.55;3.30;;;;;;;21.20;29.29;103806.56;7315133;19;128884;-61
2022/01/12 08:20:18;;;;;;;7.97;3.70;;;;;;;21.30;29.59;103811.84;7315606;19;136407;-62
2022/01/12 08:22:45;;;;;;;13.38;3.50;;;;;;;21.38;28.97;103819.22;7316142;19;131020;-62
2022/01/12 08:25:11;;;;;;;7.05;3.20;;;;;;;21.48;29.05;103818.91;7315111;19;131333;-61
2022/01/12 08:27:39;;;;;;;7.30;3.30;;;;;;;21.56;28.93;103816.06;7316741;19;129179;-61
2022/01/12 08:30:15;;;;;;;7.78;3.53;;;;;;;21.63;29.30;103821.69;7312420;19;133555;-61
2022/01/12 08:32:46;;;;;;;9.32;3.28;;;;;;;21.72;28.96;103828.03;7317029;19;134773;-62
2022/01/12 08:35:14;;;;;;;5.53;2.80;;;;;;;21.78;28.93;103825.31;7314415;19;131222;-61
2022/01/12 08:37:41;;;;;;;4.72;2.83;;;;;;;21.85;29.03;103821.72;7313866;19;128903;-61
2022/01/12 08:40:09;;;;;;;4.13;3.10;;;;;;;21.92;28.59;103823.53;7316012;19;132297;-61
2022/01/12 08:42:35;;;;;;;7.32;2.70;;;;;;;21.97;28.82;103820.13;7311643;19;131072;-62
2022/01/12 08:45:04;;;;;;;8.23;3.33;;;;;;;22.04;28.45;103811.84;7315453;19;129384;-62
2022/01/12 08:47:31;;;;;;;4.85;2.80;;;;;;;22.07;28.62;103823.44;7314356;19;130646;-61
2022/01/12 08:49:58;;;;;;;4.90;3.00;;;;;;;22.10;28.30;103828.63;7316263;19;132104;-61
2022/01/12 08:52:27;;;;;;;6.68;3.10;;;;;;;22.11;28.77;103830.34;7314102;19;131055;-61
2022/01/12 08:54:54;;;;;;;5.78;3.17;;;;;;;22.10;28.60;103811.91;7314305;19;131204;-62
2022/01/12 08:57:20;;;;;;;10.00;3.22;;;;;;;22.11;28.63;103826.69;7316199;19;131379;-61
2022/01/12 08:59:47;;;;;;;6.70;3.05;;;;;;;22.10;28.61;103827.75;7313460;19;131321;-61
2022/01/12 09:02:15;;;;;;;5.93;3.13;;;;;;;22.08;28.71;103832.69;7317156;19;132098;-61
2022/01/12 09:04:42;;;;;;;5.30;2.97;;;;;;;22.05;28.78;103827.50;7312545;19;131566;-61
2022/01/12 09:07:10;;;;;;;5.70;3.03;;;;;;;22.03;28.87;103832.41;7318622;19;129146;-61
2022/01/12 09:09:37;;;;;;;5.03;2.75;;;;;;;22.01;28.75;103840.09;7311777;19;131058;-61
2022/01/12 09:12:05;;;;;;;4.68;2.80;;;;;;;21.95;29.11;103841.75;7316413;19;131049;-62
2022/01/12 09:14:32;;;;;;;3.97;2.90;;;;;;;21.88;28.99;103846.41;7312232;19;128959;-61
2022/01/12 09:17:00;;;;;;;4.68;2.63;;;;;;;21.82;29.02;103848.91;7315845;19;129490;-61
2022/01/12 09:19:27;;;;;;;5.20;2.78;;;;;;;21.77;29.32;103861.72;7316064;19;131881;-61
2022/01/12 09:21:56;;;;;;;5.53;3.08;;;;;;;21.69;28.99;103865.47;7313580;19;132298;-61
2022/01/12 09:24:22;;;;;;;5.03;3.03;;;;;;;21.62;29.21;103870.97;7314974;19;128841;-61
2022/01/12 09:26:50;;;;;;;4.47;2.95;;;;;;;21.56;29.14;103870.88;7313513;19;131716;-61
2022/01/12 09:29:18;;;;;;;7.97;3.58;;;;;;;21.49;29.38;103879.16;7313534;19;131442;-61
2022/01/12 09:31:45;;;;;;;5.47;2.92;;;;;;;21.43;29.27;103886.34;7311713;19;131699;-61
2022/01/12 09:34:12;;;;;;;7.40;2.88;;;;;;;21.37;29.41;103889.91;7313088;19;129239;-61
2022/01/12 09:36:39;;;;;;;4.22;2.88;;;;;;;21.31;29.57;103893.44;7314784;19;128980;-61
2022/01/12 09:39:06;;;;;;;4.57;2.80;;;;;;;21.26;29.63;103904.31;7309844;19;131712;-61
2022/01/12 09:41:33;;;;;;;5.25;2.70;;;;;;;21.18;29.76;103903.34;7315801;19;131243;-61
2022/01/12 09:44:00;;;;;;;4.82;3.08;;;;;;;21.13;29.88;103905.84;7312637;19;129111;-61
2022/01/12 09:46:27;;;;;;;5.53;3.47;;;;;;;21.08;30.17;103911.09;7316196;19;128940;-62
2022/01/12 09:48:56;;;;;;;5.72;3.33;;;;;;;21.03;30.08;103905.28;7311371;19;131345;-61
2022/01/12 09:51:23;;;;;;;6.95;3.38;;;;;;;20.98;30.24;103899.41;7314006;19;131826;-61
2022/01/12 09:53:51;;;;;;;5.07;3.00;;;;;;;20.94;30.05;103909.16;7312257;19;130722;-61
2022/01/12 09:56:24;;;;;;;6.22;2.95;;;;;;;20.87;30.09;103904.38;7314260;19;128893;-61
2022/01/12 09:58:54;;;;;;;4.68;3.15;;;;;;;20.83;30.07;103905.78;7314175;19;132070;-61
2022/01/12 10:01:36;;;;;;;6.10;3.15;;;;;;;20.78;30.10;103902.72;7303619;19;131240;-62
2022/01/12 10:04:11;;;;;;;5.53;3.10;;;;;;;20.73;30.61;103899.59;7314576;19;128908;-62
2022/01/12 10:06:41;;;;;;;6.90;3.72;;;;;;;20.67;30.70;103911.50;7313297;19;130733;-62
2022/01/12 10:09:08;;;;;;;7.03;3.38;;;;;;;20.63;30.74;103907.34;7312704;19;131939;-61
2022/01/12 10:11:39;;;;;;;5.50;3.42;;;;;;;20.60;30.34;103917.78;7310903;19;131964;-61
2022/01/12 10:14:07;;;;;;;5.88;3.42;;;;;;;20.55;30.49;103914.72;7312827;19;131883;-62
2022/01/12 10:16:34;;;;;;;5.22;3.17;;;;;;;20.51;30.95;103930.06;7315189;19;128984;-62
2022/01/12 10:19:01;;;;;;;4.60;3.35;;;;;;;20.48;30.86;103929.56;7312150;19;131256;-62
2022/01/12 10:21:37;;;;;;;6.40;3.83;;;;;;;20.44;30.89;103940.16;7314282;19;131139;-61
2022/01/12 10:24:12;;;;;;;4.70;3.50;;;;;;;20.41;31.15;103932.22;7310153;19;129218;-63
2022/01/12 10:26:41;;;;;;;6.90;3.70;;;;;;;20.39;31.19;103931.53;7315016;19;128888;-62
2022/01/12 10:29:21;;;;;;;9.38;3.83;;;;;;;20.38;31.19;103929.81;7309899;19;131760;-62
2022/01/12 10:31:51;;;;;;;6.45;3.90;;;;;;;20.35;30.97;103932.94;7314791;19;131189;-62
2022/01/12 10:34:22;;;;;;;5.93;4.20;;;;;;;20.32;30.91;103931.41;7311723;19;128873;-61
2022/01/12 10:36:50;;;;;;;6.13;4.20;;;;;;;20.30;30.76;103927.94;7312860;19;129202;-61
2022/01/12 10:39:18;;;;;;;7.28;4.97;;;;;;;20.28;30.81;103924.47;7310281;19;131268;-61
2022/01/12 10:41:57;;;;;;;6.13;3.75;;;;;;;20.26;30.97;103932.13;7308656;19;131017;-61
2022/01/12 10:44:27;;;;;;;6.28;4.50;;;;;;;20.22;31.23;103931.63;7313718;19;129027;-61
2022/01/12 10:47:14;;;;;;;7.28;4.80;;;;;;;20.20;31.22;103922.63;7309805;19;129069;-62
2022/01/12 10:49:43;;;;;;;8.38;4.70;;;;;;;20.17;30.99;103922.13;7312366;19;130989;-61
2022/01/12 10:52:13;;;;;;;8.25;5.03;;;;;;;20.15;31.06;103916.75;7308886;19;132671;-61
2022/01/12 10:54:45;;;;;;;9.23;5.15;;;;;;;20.13;30.80;103919.69;7311845;19;129354;-62
2022/01/12 10:57:17;;;;;;;7.40;5.18;;;;;;;20.15;31.18;103913.97;7314320;19;128771;-63
2022/01/12 11:00:08;;;;;;;7.95;4.95;;;;;;;20.16;30.76;103910.16;7310588;19;131199;-63
2022/01/12 11:02:38;;;;;;;7.35;4.80;;;;;;;20.19;31.03;103912.53;7314389;19;132439;-61
2022/01/12 11:05:07;;;;;;;9.63;4.78;;;;;;;20.22;31.08;103909.41;7309832;19;129759;-61
2022/01/12 11:07:34;;;;;;;9.02;5.05;;;;;;;20.27;30.67;103918.06;7313024;19;129075;-61
2022/01/12 11:10:05;;;;;;;9.52;5.00;;;;;;;20.34;30.96;103920.09;7310398;19;131318;-61
2022/01/12 11:12:35;;;;;;;9.18;4.85;;;;;;;20.40;30.65;103922.16;7311525;19;131137;-61
2022/01/12 11:15:05;;;;;;;8.32;4.45;;;;;;;20.51;30.61;103923.59;7312748;19;128987;-61
2022/01/12 11:17:32;;;;;;;8.25;5.78;;;;;;;20.67;30.14;103928.19;7308511;19;128800;-62
2022/01/12 11:20:05;;;;;;;8.07;5.30;;;;;;;20.80;30.13;103917.28;7312887;19;131255;-61
2022/01/12 11:22:47;;;;;;;7.70;5.05;;;;;;;20.95;30.09;103913.69;7308262;19;131420;-61
2022/01/12 11:25:42;;;;;;;8.25;4.78;;;;;;;21.09;29.94;103918.41;7313117;19;128915;-61
2022/01/12 11:28:17;;;;;;;7.03;4.80;;;;;;;21.20;29.86;103917.94;7307029;19;129043;-62
2022/01/12 11:30:50;;;;;;;7.45;4.95;;;;;;;21.32;29.63;103912.75;7307316;19;131703;-61
2022/01/12 11:33:19;;;;;;;6.90;4.85;;;;;;;21.43;29.83;103916.13;7311769;19;131198;-61
2022/01/12 11:35:51;;;;;;;8.27;4.60;;;;;;;21.54;29.54;103906.47;7306020;19;129248;-61
2022/01/12 11:38:27;;;;;;;8.57;4.63;;;;;;;21.66;29.03;103922.47;7309100;19;129916;-61
2022/01/12 11:41:07;;;;;;;7.50;5.00;;;;;;;21.74;29.25;103918.72;7307415;19;131877;-61
2022/01/12 11:43:50;;;;;;;7.13;5.00;;;;;;;21.85;29.03;103916.47;7309065;19;131251;-61
2022/01/12 11:46:26;;;;;;;8.77;5.57;;;;;;;21.92;28.91;103931.34;7312879;19;128805;-62
2022/01/12 11:48:59;;;;;;;10.30;5.38;;;;;;;21.94;28.92;103926.44;7308414;19;130312;-61
2022/01/12 11:51:38;;;;;;;6.55;5.13;;;;;;;21.96;28.79;103927.13;7311599;19;131313;-62
2022/01/12 11:54:09;;;;;;;10.00;5.25;;;;;;;21.93;28.98;103935.84;7310802;19;132036;-61
2022/01/12 11:56:38;;;;;;;6.60;4.72;;;;;;;21.88;28.86;103935.59;7318860;19;129795;-62
2022/01/12 11:59:08;;;;;;;7.93;5.63;;;;;;;21.83;28.94;103944.56;7314839;19;129691;-61
2022/01/12 12:01:50;;;;;;;12.05;5.25;;;;;;;21.77;29.14;103932.25;7314519;19;132815;-60
2022/01/12 12:04:31;;;;;;;10.07;5.60;;;;;;;21.70;29.43;103927.66;7318856;19;132238;-61
2022/01/12 12:07:13;;;;;;;14.57;5.63;;;;;;;21.64;29.33;103918.16;7313829;19;129153;-61
2022/01/12 12:09:43;;;;;;;12.68;6.18;;;;;;;21.57;29.57;103912.50;7315838;19;130033;-61
2022/01/12 12:12:12;;;;;;;13.45;6.78;;;;;;;21.55;30.14;103914.59;7315365;19;131014;-59
2022/01/12 12:14:39;;;;;;;26.92;7.57;;;;;;;21.54;30.17;103915.66;7316458;19;131013;-59
2022/01/12 12:17:07;;;;;;;20.15;8.00;;;;;;;21.54;30.21;103909.25;7316422;19;129005;-60
2022/01/12 12:19:37;;;;;;;23.10;8.10;;;;;;;21.55;29.89;103909.03;7315135;19;128925;-61
2022/01/12 12:22:15;;;;;;;31.60;9.23;;;;;;;21.63;30.25;103924.78;7319314;19;131213;-60
2022/01/12 12:24:43;;;;;;;23.27;7.60;;;;;;;21.69;29.85;103926.78;7313398;19;131105;-60
2022/01/12 12:27:16;;;;;;;14.77;6.82;;;;;;;21.77;29.94;103921.13;7317911;19;130342;-61
2022/01/12 12:29:44;;;;;;;23.67;7.25;;;;;;;21.85;29.79;103924.84;7314645;19;128969;-60
2022/01/12 12:32:13;;;;;;;20.13;8.05;;;;;;;21.92;29.72;103925.78;7315373;19;133372;-59
2022/01/12 12:34:41;;;;;;;20.42;8.13;;;;;;;21.98;29.75;103925.84;7317060;19;131194;-60